Alamogordo/Holloman AFB, New Mexico
Current Conditions -  °F | °C
As of 9:07 AM on Tuesday 21 Oct 2014 (Local Time) from KHMN Reporting Station
Few Clouds Few Clouds  
Wind Chill: 55°   Ceiling: Unl
Heat Index: 55°   Visibility: 7mi
Dew Point: 55°   Wind: 0mph
Humidity: 100%   Direction: NA
Pressure: 30.12"   Gusts: NA
Location:  32.85°N, 106.1°W
Report Text: KHMN 211507Z AUTO 00000KT 7SM FEW002 13/13 A3012 RMK AO2
Loading
Personal Weather Stations






























Interactive Weather Map
Tropical Storm Tracking
New forecast layout! Learn more

10-Day Weather Forecast

Advertisements
Track Severe Weather on mobile